sensor_id;sensor_type;location;lat;lon;timestamp;P1;durP1;ratioP1;P2;durP2;ratioP2
24383;SDS011;12504;52.870;8.798;2023-07-13T00:02:14;19.20;;;13.18;;
24383;SDS011;12504;52.870;8.798;2023-07-13T00:04:40;23.60;;;14.32;;
24383;SDS011;12504;52.870;8.798;2023-07-13T00:07:06;23.27;;;13.68;;
24383;SDS011;12504;52.870;8.798;2023-07-13T00:09:33;24.05;;;13.07;;
24383;SDS011;12504;52.870;8.798;2023-07-13T00:11:59;17.13;;;13.13;;
24383;SDS011;12504;52.870;8.798;2023-07-13T00:14:26;19.73;;;13.00;;
24383;SDS011;12504;52.870;8.798;2023-07-13T00:16:53;24.40;;;13.27;;
24383;SDS011;12504;52.870;8.798;2023-07-13T00:19:19;19.67;;;13.55;;
24383;SDS011;12504;52.870;8.798;2023-07-13T00:21:45;21.23;;;14.27;;
24383;SDS011;12504;52.870;8.798;2023-07-13T00:24:12;20.35;;;14.18;;
24383;SDS011;12504;52.870;8.798;2023-07-13T00:26:39;21.58;;;14.05;;
24383;SDS011;12504;52.870;8.798;2023-07-13T00:29:05;23.60;;;14.57;;
24383;SDS011;12504;52.870;8.798;2023-07-13T00:31:33;26.98;;;14.43;;
24383;SDS011;12504;52.870;8.798;2023-07-13T00:34:00;25.13;;;16.35;;
24383;SDS011;12504;52.870;8.798;2023-07-13T00:36:26;19.73;;;14.38;;
24383;SDS011;12504;52.870;8.798;2023-07-13T00:38:52;23.85;;;14.93;;
24383;SDS011;12504;52.870;8.798;2023-07-13T00:41:18;21.95;;;15.35;;
24383;SDS011;12504;52.870;8.798;2023-07-13T00:43:44;24.05;;;14.13;;
24383;SDS011;12504;52.870;8.798;2023-07-13T00:46:12;27.58;;;15.75;;
24383;SDS011;12504;52.870;8.798;2023-07-13T00:48:51;24.25;;;16.42;;
24383;SDS011;12504;52.870;8.798;2023-07-13T00:51:21;24.20;;;15.90;;
24383;SDS011;12504;52.870;8.798;2023-07-13T00:53:54;23.95;;;17.35;;
24383;SDS011;12504;52.870;8.798;2023-07-13T00:56:23;29.90;;;18.98;;
24383;SDS011;12504;52.870;8.798;2023-07-13T00:58:49;27.90;;;16.70;;
24383;SDS011;12504;52.870;8.798;2023-07-13T01:01:15;31.65;;;16.98;;
24383;SDS011;12504;52.870;8.798;2023-07-13T01:03:41;29.13;;;17.95;;
24383;SDS011;12504;52.870;8.798;2023-07-13T01:06:07;36.58;;;17.85;;
24383;SDS011;12504;52.870;8.798;2023-07-13T01:08:33;22.13;;;16.38;;
24383;SDS011;12504;52.870;8.798;2023-07-13T01:10:59;27.25;;;17.50;;
24383;SDS011;12504;52.870;8.798;2023-07-13T01:13:25;30.92;;;17.08;;
24383;SDS011;12504;52.870;8.798;2023-07-13T01:15:51;29.83;;;16.83;;
24383;SDS011;12504;52.870;8.798;2023-07-13T01:18:22;26.00;;;18.75;;
24383;SDS011;12504;52.870;8.798;2023-07-13T01:20:57;34.60;;;20.00;;
24383;SDS011;12504;52.870;8.798;2023-07-13T01:23:24;29.15;;;19.52;;
24383;SDS011;12504;52.870;8.798;2023-07-13T01:25:54;29.00;;;17.17;;
24383;SDS011;12504;52.870;8.798;2023-07-13T01:28:20;26.98;;;19.08;;
24383;SDS011;12504;52.870;8.798;2023-07-13T01:30:47;27.48;;;16.85;;
24383;SDS011;12504;52.870;8.798;2023-07-13T01:33:14;30.60;;;17.48;;
24383;SDS011;12504;52.870;8.798;2023-07-13T01:35:42;26.63;;;18.10;;
24383;SDS011;12504;52.870;8.798;2023-07-13T01:38:09;27.45;;;17.52;;
24383;SDS011;12504;52.870;8.798;2023-07-13T01:40:35;28.42;;;16.52;;
24383;SDS011;12504;52.870;8.798;2023-07-13T01:43:02;28.85;;;16.75;;
24383;SDS011;12504;52.870;8.798;2023-07-13T01:45:28;32.15;;;18.00;;
24383;SDS011;12504;52.870;8.798;2023-07-13T01:47:54;26.00;;;17.10;;
24383;SDS011;12504;52.870;8.798;2023-07-13T01:50:19;25.45;;;15.90;;
24383;SDS011;12504;52.870;8.798;2023-07-13T01:52:45;27.02;;;15.60;;
24383;SDS011;12504;52.870;8.798;2023-07-13T01:55:11;24.70;;;17.02;;
24383;SDS011;12504;52.870;8.798;2023-07-13T01:57:36;26.45;;;15.73;;
24383;SDS011;12504;52.870;8.798;2023-07-13T02:00:03;21.48;;;14.00;;
24383;SDS011;12504;52.870;8.798;2023-07-13T02:02:40;30.33;;;15.50;;
24383;SDS011;12504;52.870;8.798;2023-07-13T02:05:08;21.83;;;12.05;;
24383;SDS011;12504;52.870;8.798;2023-07-13T02:07:34;23.17;;;12.90;;
24383;SDS011;12504;52.870;8.798;2023-07-13T02:09:59;23.60;;;14.65;;
24383;SDS011;12504;52.870;8.798;2023-07-13T02:12:25;18.45;;;11.88;;
24383;SDS011;12504;52.870;8.798;2023-07-13T02:14:51;21.17;;;11.95;;
24383;SDS011;12504;52.870;8.798;2023-07-13T02:17:16;24.00;;;12.75;;
24383;SDS011;12504;52.870;8.798;2023-07-13T02:19:42;25.33;;;11.75;;
24383;SDS011;12504;52.870;8.798;2023-07-13T02:22:08;20.15;;;11.18;;
24383;SDS011;12504;52.870;8.798;2023-07-13T02:24:33;16.88;;;11.25;;
24383;SDS011;12504;52.870;8.798;2023-07-13T02:26:59;25.10;;;10.00;;
24383;SDS011;12504;52.870;8.798;2023-07-13T02:29:25;20.20;;;10.48;;
24383;SDS011;12504;52.870;8.798;2023-07-13T02:31:50;24.23;;;9.70;;
24383;SDS011;12504;52.870;8.798;2023-07-13T02:34:16;16.67;;;8.68;;
24383;SDS011;12504;52.870;8.798;2023-07-13T02:36:41;20.40;;;8.77;;
24383;SDS011;12504;52.870;8.798;2023-07-13T02:39:07;23.75;;;9.00;;
24383;SDS011;12504;52.870;8.798;2023-07-13T02:41:36;21.85;;;9.13;;
24383;SDS011;12504;52.870;8.798;2023-07-13T02:44:02;15.50;;;7.65;;
24383;SDS011;12504;52.870;8.798;2023-07-13T02:46:29;21.08;;;9.07;;
24383;SDS011;12504;52.870;8.798;2023-07-13T02:48:59;20.90;;;8.63;;
24383;SDS011;12504;52.870;8.798;2023-07-13T02:51:25;14.15;;;8.00;;
24383;SDS011;12504;52.870;8.798;2023-07-13T02:53:51;12.93;;;6.70;;
24383;SDS011;12504;52.870;8.798;2023-07-13T02:56:17;17.75;;;8.45;;
24383;SDS011;12504;52.870;8.798;2023-07-13T02:58:47;16.25;;;7.30;;
24383;SDS011;12504;52.870;8.798;2023-07-13T03:01:12;16.77;;;7.32;;
24383;SDS011;12504;52.870;8.798;2023-07-13T03:03:38;10.90;;;6.63;;
24383;SDS011;12504;52.870;8.798;2023-07-13T03:06:04;15.60;;;7.18;;
24383;SDS011;12504;52.870;8.798;2023-07-13T03:08:40;16.02;;;8.45;;
24383;SDS011;12504;52.870;8.798;2023-07-13T03:11:07;20.92;;;6.57;;
24383;SDS011;12504;52.870;8.798;2023-07-13T03:13:39;19.17;;;6.22;;
24383;SDS011;12504;52.870;8.798;2023-07-13T03:16:06;17.67;;;6.10;;
24383;SDS011;12504;52.870;8.798;2023-07-13T03:18:33;21.92;;;6.25;;
24383;SDS011;12504;52.870;8.798;2023-07-13T03:21:03;17.85;;;5.85;;
24383;SDS011;12504;52.870;8.798;2023-07-13T03:23:29;10.45;;;5.38;;
24383;SDS011;12504;52.870;8.798;2023-07-13T03:26:01;11.48;;;5.93;;
24383;SDS011;12504;52.870;8.798;2023-07-13T03:28:29;11.90;;;6.13;;
24383;SDS011;12504;52.870;8.798;2023-07-13T03:31:00;15.88;;;5.32;;
24383;SDS011;12504;52.870;8.798;2023-07-13T03:33:31;13.60;;;5.25;;
24383;SDS011;12504;52.870;8.798;2023-07-13T03:35:57;12.35;;;4.72;;
24383;SDS011;12504;52.870;8.798;2023-07-13T03:38:23;17.45;;;5.25;;
24383;SDS011;12504;52.870;8.798;2023-07-13T03:40:50;13.48;;;5.00;;
24383;SDS011;12504;52.870;8.798;2023-07-13T03:43:17;11.18;;;5.20;;
24383;SDS011;12504;52.870;8.798;2023-07-13T03:45:42;17.98;;;5.00;;
24383;SDS011;12504;52.870;8.798;2023-07-13T03:48:09;17.38;;;5.15;;
24383;SDS011;12504;52.870;8.798;2023-07-13T03:50:35;9.50;;;4.82;;
24383;SDS011;12504;52.870;8.798;2023-07-13T03:53:02;12.55;;;5.75;;
24383;SDS011;12504;52.870;8.798;2023-07-13T03:55:28;18.42;;;4.95;;
24383;SDS011;12504;52.870;8.798;2023-07-13T03:57:58;12.43;;;5.22;;
24383;SDS011;12504;52.870;8.798;2023-07-13T04:00:43;12.63;;;4.32;;
24383;SDS011;12504;52.870;8.798;2023-07-13T04:03:08;16.75;;;4.88;;
24383;SDS011;12504;52.870;8.798;2023-07-13T04:05:34;14.77;;;5.45;;
24383;SDS011;12504;52.870;8.798;2023-07-13T04:08:01;19.95;;;5.13;;
24383;SDS011;12504;52.870;8.798;2023-07-13T04:10:26;15.95;;;4.88;;
24383;SDS011;12504;52.870;8.798;2023-07-13T04:12:52;14.90;;;5.75;;
24383;SDS011;12504;52.870;8.798;2023-07-13T04:15:17;12.60;;;5.03;;
24383;SDS011;12504;52.870;8.798;2023-07-13T04:17:43;15.85;;;5.22;;
24383;SDS011;12504;52.870;8.798;2023-07-13T04:20:09;11.68;;;4.25;;
24383;SDS011;12504;52.870;8.798;2023-07-13T04:22:34;17.60;;;5.47;;
24383;SDS011;12504;52.870;8.798;2023-07-13T04:25:00;8.90;;;5.40;;
24383;SDS011;12504;52.870;8.798;2023-07-13T04:27:26;11.02;;;4.80;;
24383;SDS011;12504;52.870;8.798;2023-07-13T04:29:51;12.52;;;4.55;;
24383;SDS011;12504;52.870;8.798;2023-07-13T04:32:17;10.57;;;4.57;;
24383;SDS011;12504;52.870;8.798;2023-07-13T04:34:43;16.98;;;5.63;;
24383;SDS011;12504;52.870;8.798;2023-07-13T04:37:08;12.35;;;4.53;;
24383;SDS011;12504;52.870;8.798;2023-07-13T04:39:34;14.00;;;4.50;;
24383;SDS011;12504;52.870;8.798;2023-07-13T04:42:00;10.30;;;4.32;;
24383;SDS011;12504;52.870;8.798;2023-07-13T04:44:25;7.93;;;4.07;;
24383;SDS011;12504;52.870;8.798;2023-07-13T04:46:51;10.07;;;4.22;;
24383;SDS011;12504;52.870;8.798;2023-07-13T04:49:16;9.48;;;4.20;;
24383;SDS011;12504;52.870;8.798;2023-07-13T04:51:42;10.25;;;4.43;;
24383;SDS011;12504;52.870;8.798;2023-07-13T04:54:08;16.42;;;6.60;;
24383;SDS011;12504;52.870;8.798;2023-07-13T04:56:33;13.30;;;4.72;;
24383;SDS011;12504;52.870;8.798;2023-07-13T04:58:59;16.13;;;4.25;;
24383;SDS011;12504;52.870;8.798;2023-07-13T05:01:24;9.45;;;4.20;;
24383;SDS011;12504;52.870;8.798;2023-07-13T05:03:50;13.88;;;4.75;;
24383;SDS011;12504;52.870;8.798;2023-07-13T05:06:16;10.70;;;5.00;;
24383;SDS011;12504;52.870;8.798;2023-07-13T05:08:41;16.50;;;5.20;;
24383;SDS011;12504;52.870;8.798;2023-07-13T05:11:07;18.25;;;4.65;;
24383;SDS011;12504;52.870;8.798;2023-07-13T05:13:33;15.07;;;5.05;;
24383;SDS011;12504;52.870;8.798;2023-07-13T05:15:59;12.60;;;4.57;;
24383;SDS011;12504;52.870;8.798;2023-07-13T05:18:26;17.45;;;5.38;;
24383;SDS011;12504;52.870;8.798;2023-07-13T05:20:59;13.95;;;5.10;;
24383;SDS011;12504;52.870;8.798;2023-07-13T05:23:27;10.43;;;5.18;;
24383;SDS011;12504;52.870;8.798;2023-07-13T05:25:53;13.02;;;4.88;;
24383;SDS011;12504;52.870;8.798;2023-07-13T05:28:18;12.63;;;4.70;;
24383;SDS011;12504;52.870;8.798;2023-07-13T05:30:47;13.50;;;4.45;;
24383;SDS011;12504;52.870;8.798;2023-07-13T05:33:14;8.45;;;5.22;;
24383;SDS011;12504;52.870;8.798;2023-07-13T05:35:39;9.85;;;4.50;;
24383;SDS011;12504;52.870;8.798;2023-07-13T05:38:05;14.48;;;5.13;;
24383;SDS011;12504;52.870;8.798;2023-07-13T05:40:31;6.80;;;4.45;;
24383;SDS011;12504;52.870;8.798;2023-07-13T05:42:57;11.93;;;5.00;;
24383;SDS011;12504;52.870;8.798;2023-07-13T05:45:23;12.55;;;5.28;;
24383;SDS011;12504;52.870;8.798;2023-07-13T05:47:48;12.25;;;5.53;;
24383;SDS011;12504;52.870;8.798;2023-07-13T05:50:14;11.48;;;5.03;;
24383;SDS011;12504;52.870;8.798;2023-07-13T05:52:39;15.10;;;6.22;;
24383;SDS011;12504;52.870;8.798;2023-07-13T05:55:05;13.40;;;5.43;;
24383;SDS011;12504;52.870;8.798;2023-07-13T05:57:31;12.25;;;5.35;;
24383;SDS011;12504;52.870;8.798;2023-07-13T05:59:57;10.40;;;5.38;;
24383;SDS011;12504;52.870;8.798;2023-07-13T06:02:22;15.50;;;5.00;;
24383;SDS011;12504;52.870;8.798;2023-07-13T06:04:48;6.65;;;4.85;;
24383;SDS011;12504;52.870;8.798;2023-07-13T06:07:14;15.15;;;5.03;;
24383;SDS011;12504;52.870;8.798;2023-07-13T06:09:40;11.48;;;5.68;;
24383;SDS011;12504;52.870;8.798;2023-07-13T06:12:05;11.73;;;5.20;;
24383;SDS011;12504;52.870;8.798;2023-07-13T06:14:31;16.20;;;4.25;;
24383;SDS011;12504;52.870;8.798;2023-07-13T06:16:57;15.98;;;5.15;;
24383;SDS011;12504;52.870;8.798;2023-07-13T06:19:23;17.38;;;5.88;;
24383;SDS011;12504;52.870;8.798;2023-07-13T06:21:49;17.73;;;5.80;;
24383;SDS011;12504;52.870;8.798;2023-07-13T06:24:14;10.60;;;4.25;;
24383;SDS011;12504;52.870;8.798;2023-07-13T06:26:40;16.13;;;5.93;;
24383;SDS011;12504;52.870;8.798;2023-07-13T06:29:05;11.95;;;4.93;;
24383;SDS011;12504;52.870;8.798;2023-07-13T06:31:31;8.90;;;4.25;;
24383;SDS011;12504;52.870;8.798;2023-07-13T06:33:57;7.05;;;4.35;;
24383;SDS011;12504;52.870;8.798;2023-07-13T06:36:22;16.27;;;4.65;;
24383;SDS011;12504;52.870;8.798;2023-07-13T06:38:48;11.45;;;4.47;;
24383;SDS011;12504;52.870;8.798;2023-07-13T06:41:13;18.92;;;4.22;;
24383;SDS011;12504;52.870;8.798;2023-07-13T06:43:39;9.05;;;5.00;;
24383;SDS011;12504;52.870;8.798;2023-07-13T06:46:05;16.63;;;5.13;;
24383;SDS011;12504;52.870;8.798;2023-07-13T06:48:31;8.68;;;5.07;;
24383;SDS011;12504;52.870;8.798;2023-07-13T06:50:57;11.30;;;4.93;;
24383;SDS011;12504;52.870;8.798;2023-07-13T06:53:23;12.40;;;6.22;;
24383;SDS011;12504;52.870;8.798;2023-07-13T06:55:49;14.40;;;4.85;;
24383;SDS011;12504;52.870;8.798;2023-07-13T06:58:15;11.88;;;4.45;;
24383;SDS011;12504;52.870;8.798;2023-07-13T07:00:42;8.80;;;4.57;;
24383;SDS011;12504;52.870;8.798;2023-07-13T07:03:08;12.55;;;5.07;;
24383;SDS011;12504;52.870;8.798;2023-07-13T07:05:33;10.23;;;4.80;;
24383;SDS011;12504;52.870;8.798;2023-07-13T07:07:59;18.67;;;6.55;;
24383;SDS011;12504;52.870;8.798;2023-07-13T07:10:25;14.25;;;5.28;;
24383;SDS011;12504;52.870;8.798;2023-07-13T07:12:51;13.27;;;5.05;;
24383;SDS011;12504;52.870;8.798;2023-07-13T07:15:17;15.68;;;6.07;;
24383;SDS011;12504;52.870;8.798;2023-07-13T07:17:43;10.82;;;5.57;;
24383;SDS011;12504;52.870;8.798;2023-07-13T07:20:09;13.85;;;6.15;;
24383;SDS011;12504;52.870;8.798;2023-07-13T07:22:35;8.98;;;5.70;;
24383;SDS011;12504;52.870;8.798;2023-07-13T07:25:01;14.05;;;5.78;;
24383;SDS011;12504;52.870;8.798;2023-07-13T07:27:26;9.63;;;5.15;;
24383;SDS011;12504;52.870;8.798;2023-07-13T07:29:52;10.73;;;5.15;;
24383;SDS011;12504;52.870;8.798;2023-07-13T07:32:19;22.95;;;7.45;;
24383;SDS011;12504;52.870;8.798;2023-07-13T07:34:45;10.52;;;5.80;;
24383;SDS011;12504;52.870;8.798;2023-07-13T07:37:11;11.38;;;6.50;;
24383;SDS011;12504;52.870;8.798;2023-07-13T07:39:38;15.48;;;5.70;;
24383;SDS011;12504;52.870;8.798;2023-07-13T07:42:04;16.67;;;6.07;;
24383;SDS011;12504;52.870;8.798;2023-07-13T07:44:31;15.52;;;5.97;;
24383;SDS011;12504;52.870;8.798;2023-07-13T07:46:57;11.80;;;7.55;;
24383;SDS011;12504;52.870;8.798;2023-07-13T07:49:23;18.80;;;6.90;;
24383;SDS011;12504;52.870;8.798;2023-07-13T07:51:49;8.82;;;6.40;;
24383;SDS011;12504;52.870;8.798;2023-07-13T07:54:15;12.32;;;7.45;;
24383;SDS011;12504;52.870;8.798;2023-07-13T07:56:41;15.63;;;7.85;;
24383;SDS011;12504;52.870;8.798;2023-07-13T07:59:07;18.85;;;7.57;;
24383;SDS011;12504;52.870;8.798;2023-07-13T08:01:33;19.05;;;8.90;;
24383;SDS011;12504;52.870;8.798;2023-07-13T08:03:58;16.85;;;7.88;;
24383;SDS011;12504;52.870;8.798;2023-07-13T08:06:24;12.63;;;7.47;;
24383;SDS011;12504;52.870;8.798;2023-07-13T08:08:52;12.77;;;6.80;;
24383;SDS011;12504;52.870;8.798;2023-07-13T08:11:22;11.48;;;6.88;;
24383;SDS011;12504;52.870;8.798;2023-07-13T08:13:47;14.82;;;7.05;;
24383;SDS011;12504;52.870;8.798;2023-07-13T08:16:14;16.73;;;7.28;;
24383;SDS011;12504;52.870;8.798;2023-07-13T08:18:40;18.25;;;7.10;;
24383;SDS011;12504;52.870;8.798;2023-07-13T08:21:06;11.32;;;6.93;;
24383;SDS011;12504;52.870;8.798;2023-07-13T08:23:33;18.58;;;7.57;;
24383;SDS011;12504;52.870;8.798;2023-07-13T08:25:59;14.80;;;7.93;;
24383;SDS011;12504;52.870;8.798;2023-07-13T08:28:26;16.45;;;7.57;;
24383;SDS011;12504;52.870;8.798;2023-07-13T08:30:53;13.55;;;7.60;;
24383;SDS011;12504;52.870;8.798;2023-07-13T08:33:19;12.60;;;6.38;;
24383;SDS011;12504;52.870;8.798;2023-07-13T08:35:47;11.07;;;7.00;;
24383;SDS011;12504;52.870;8.798;2023-07-13T08:38:13;15.38;;;6.90;;
24383;SDS011;12504;52.870;8.798;2023-07-13T08:40:39;14.40;;;7.78;;
24383;SDS011;12504;52.870;8.798;2023-07-13T08:43:07;10.07;;;6.45;;
24383;SDS011;12504;52.870;8.798;2023-07-13T08:45:52;18.88;;;6.95;;
24383;SDS011;12504;52.870;8.798;2023-07-13T08:48:38;9.02;;;6.13;;
24383;SDS011;12504;52.870;8.798;2023-07-13T08:53:48;9.43;;;6.28;;
24383;SDS011;12504;52.870;8.798;2023-07-13T08:56:19;7.35;;;6.38;;
24383;SDS011;12504;52.870;8.798;2023-07-13T08:58:48;10.60;;;5.78;;
24383;SDS011;12504;52.870;8.798;2023-07-13T09:01:23;10.10;;;5.85;;
24383;SDS011;12504;52.870;8.798;2023-07-13T09:04:09;9.48;;;5.88;;
24383;SDS011;12504;52.870;8.798;2023-07-13T09:14:48;6.57;;;5.50;;
24383;SDS011;12504;52.870;8.798;2023-07-13T09:17:18;9.25;;;5.68;;
24383;SDS011;12504;52.870;8.798;2023-07-13T09:19:53;6.28;;;4.47;;
24383;SDS011;12504;52.870;8.798;2023-07-13T09:22:40;10.77;;;5.20;;
24383;SDS011;12504;52.870;8.798;2023-07-13T09:27:35;15.77;;;5.72;;
24383;SDS011;12504;52.870;8.798;2023-07-13T09:32:39;7.85;;;5.15;;
24383;SDS011;12504;52.870;8.798;2023-07-13T09:35:12;7.37;;;4.83;;
24383;SDS011;12504;52.870;8.798;2023-07-13T09:37:40;6.45;;;5.35;;
24383;SDS011;12504;52.870;8.798;2023-07-13T09:40:15;16.37;;;5.73;;
24383;SDS011;12504;52.870;8.798;2023-07-13T09:42:51;7.15;;;5.40;;
24383;SDS011;12504;52.870;8.798;2023-07-13T09:45:27;8.05;;;4.68;;
24383;SDS011;12504;52.870;8.798;2023-07-13T09:47:58;8.77;;;4.47;;
24383;SDS011;12504;52.870;8.798;2023-07-13T09:50:29;7.45;;;4.60;;
24383;SDS011;12504;52.870;8.798;2023-07-13T09:52:54;6.30;;;4.03;;
24383;SDS011;12504;52.870;8.798;2023-07-13T09:55:29;10.77;;;4.67;;
24383;SDS011;12504;52.870;8.798;2023-07-13T10:00:40;7.43;;;3.92;;
24383;SDS011;12504;52.870;8.798;2023-07-13T10:03:51;7.63;;;3.95;;
24383;SDS011;12504;52.870;8.798;2023-07-13T10:06:15;8.30;;;4.38;;
24383;SDS011;12504;52.870;8.798;2023-07-13T10:08:44;5.57;;;3.70;;
24383;SDS011;12504;52.870;8.798;2023-07-13T10:11:28;5.47;;;3.47;;
24383;SDS011;12504;52.870;8.798;2023-07-13T10:14:02;6.72;;;3.35;;
24383;SDS011;12504;52.870;8.798;2023-07-13T10:16:35;11.57;;;3.97;;
24383;SDS011;12504;52.870;8.798;2023-07-13T10:19:03;8.13;;;3.17;;
24383;SDS011;12504;52.870;8.798;2023-07-13T10:21:36;5.30;;;3.35;;
24383;SDS011;12504;52.870;8.798;2023-07-13T10:26:45;8.05;;;3.38;;
24383;SDS011;12504;52.870;8.798;2023-07-13T10:29:20;10.07;;;4.40;;
24383;SDS011;12504;52.870;8.798;2023-07-13T10:31:48;5.32;;;3.80;;
24383;SDS011;12504;52.870;8.798;2023-07-13T10:34:15;9.88;;;3.92;;
24383;SDS011;12504;52.870;8.798;2023-07-13T10:36:45;4.38;;;2.65;;
24383;SDS011;12504;52.870;8.798;2023-07-13T10:39:14;9.82;;;3.58;;
24383;SDS011;12504;52.870;8.798;2023-07-13T10:41:46;5.32;;;2.92;;
24383;SDS011;12504;52.870;8.798;2023-07-13T10:44:21;9.38;;;3.67;;
24383;SDS011;12504;52.870;8.798;2023-07-13T10:46:54;6.93;;;2.65;;
24383;SDS011;12504;52.870;8.798;2023-07-13T10:49:24;4.63;;;2.92;;
24383;SDS011;12504;52.870;8.798;2023-07-13T10:51:51;5.00;;;3.30;;
24383;SDS011;12504;52.870;8.798;2023-07-13T10:54:31;11.00;;;3.38;;
24383;SDS011;12504;52.870;8.798;2023-07-13T11:02:28;5.55;;;2.38;;
24383;SDS011;12504;52.870;8.798;2023-07-13T11:04:54;10.85;;;2.65;;
24383;SDS011;12504;52.870;8.798;2023-07-13T11:07:24;5.68;;;2.90;;
24383;SDS011;12504;52.870;8.798;2023-07-13T11:09:54;4.60;;;2.10;;
24383;SDS011;12504;52.870;8.798;2023-07-13T11:17:24;4.82;;;2.97;;
24383;SDS011;12504;52.870;8.798;2023-07-13T11:19:51;6.95;;;1.92;;
24383;SDS011;12504;52.870;8.798;2023-07-13T11:22:24;8.32;;;2.28;;
24383;SDS011;12504;52.870;8.798;2023-07-13T11:25:20;11.75;;;3.22;;
24383;SDS011;12504;52.870;8.798;2023-07-13T11:30:39;3.35;;;1.70;;
24383;SDS011;12504;52.870;8.798;2023-07-13T11:33:16;2.50;;;1.95;;
24383;SDS011;12504;52.870;8.798;2023-07-13T11:38:32;3.85;;;2.08;;
24383;SDS011;12504;52.870;8.798;2023-07-13T11:41:03;5.22;;;2.75;;
24383;SDS011;12504;52.870;8.798;2023-07-13T11:43:32;2.88;;;2.35;;
24383;SDS011;12504;52.870;8.798;2023-07-13T11:46:11;3.65;;;2.47;;
24383;SDS011;12504;52.870;8.798;2023-07-13T11:48:48;5.35;;;3.28;;
24383;SDS011;12504;52.870;8.798;2023-07-13T11:51:26;5.10;;;2.65;;
24383;SDS011;12504;52.870;8.798;2023-07-13T11:54:06;4.60;;;2.30;;
24383;SDS011;12504;52.870;8.798;2023-07-13T11:56:42;4.30;;;2.05;;
24383;SDS011;12504;52.870;8.798;2023-07-13T11:59:10;6.43;;;3.17;;
24383;SDS011;12504;52.870;8.798;2023-07-13T12:01:42;6.60;;;3.22;;
24383;SDS011;12504;52.870;8.798;2023-07-13T12:04:44;5.72;;;2.88;;
24383;SDS011;12504;52.870;8.798;2023-07-13T12:07:04;8.60;;;3.05;;
24383;SDS011;12504;52.870;8.798;2023-07-13T12:10:02;4.32;;;3.42;;
24383;SDS011;12504;52.870;8.798;2023-07-13T12:12:46;4.80;;;2.42;;
24383;SDS011;12504;52.870;8.798;2023-07-13T12:15:45;3.28;;;2.45;;
24383;SDS011;12504;52.870;8.798;2023-07-13T12:18:18;3.67;;;2.70;;
24383;SDS011;12504;52.870;8.798;2023-07-13T12:20:49;7.90;;;2.40;;
24383;SDS011;12504;52.870;8.798;2023-07-13T12:23:22;4.85;;;2.72;;
24383;SDS011;12504;52.870;8.798;2023-07-13T12:25:53;3.60;;;2.67;;
24383;SDS011;12504;52.870;8.798;2023-07-13T12:29:05;4.95;;;2.65;;
24383;SDS011;12504;52.870;8.798;2023-07-13T12:34:00;2.88;;;2.08;;
24383;SDS011;12504;52.870;8.798;2023-07-13T12:36:40;3.67;;;2.40;;
24383;SDS011;12504;52.870;8.798;2023-07-13T12:39:18;3.88;;;2.10;;
24383;SDS011;12504;52.870;8.798;2023-07-13T12:41:49;2.97;;;2.08;;
24383;SDS011;12504;52.870;8.798;2023-07-13T12:44:18;4.35;;;2.05;;
24383;SDS011;12504;52.870;8.798;2023-07-13T12:46:56;7.00;;;3.30;;
24383;SDS011;12504;52.870;8.798;2023-07-13T12:49:25;4.47;;;2.00;;
24383;SDS011;12504;52.870;8.798;2023-07-13T12:52:00;3.63;;;1.70;;
24383;SDS011;12504;52.870;8.798;2023-07-13T12:54:30;3.65;;;1.90;;
24383;SDS011;12504;52.870;8.798;2023-07-13T12:56:57;3.28;;;1.50;;
24383;SDS011;12504;52.870;8.798;2023-07-13T12:59:30;3.42;;;1.95;;
24383;SDS011;12504;52.870;8.798;2023-07-13T13:02:01;2.55;;;1.70;;
24383;SDS011;12504;52.870;8.798;2023-07-13T13:04:33;3.33;;;1.70;;
24383;SDS011;12504;52.870;8.798;2023-07-13T13:07:05;3.88;;;2.65;;
24383;SDS011;12504;52.870;8.798;2023-07-13T13:09:34;2.78;;;1.90;;
24383;SDS011;12504;52.870;8.798;2023-07-13T13:12:00;2.13;;;1.70;;
24383;SDS011;12504;52.870;8.798;2023-07-13T13:14:26;2.05;;;1.70;;
24383;SDS011;12504;52.870;8.798;2023-07-13T13:16:52;2.40;;;1.38;;
24383;SDS011;12504;52.870;8.798;2023-07-13T13:19:19;3.67;;;2.00;;
24383;SDS011;12504;52.870;8.798;2023-07-13T13:21:49;2.53;;;1.70;;
24383;SDS011;12504;52.870;8.798;2023-07-13T13:24:19;2.40;;;1.90;;
24383;SDS011;12504;52.870;8.798;2023-07-13T13:26:49;2.20;;;1.60;;
24383;SDS011;12504;52.870;8.798;2023-07-13T13:29:17;4.50;;;1.88;;
24383;SDS011;12504;52.870;8.798;2023-07-13T13:31:46;2.65;;;1.90;;
24383;SDS011;12504;52.870;8.798;2023-07-13T13:34:16;2.47;;;1.80;;
24383;SDS011;12504;52.870;8.798;2023-07-13T13:36:43;10.20;;;5.18;;
24383;SDS011;12504;52.870;8.798;2023-07-13T13:39:23;5.10;;;3.55;;
24383;SDS011;12504;52.870;8.798;2023-07-13T13:41:53;4.63;;;3.00;;
24383;SDS011;12504;52.870;8.798;2023-07-13T13:44:20;7.75;;;4.05;;
24383;SDS011;12504;52.870;8.798;2023-07-13T13:46:55;11.13;;;3.95;;
24383;SDS011;12504;52.870;8.798;2023-07-13T13:49:23;9.98;;;4.70;;
24383;SDS011;12504;52.870;8.798;2023-07-13T13:51:51;9.27;;;5.38;;
24383;SDS011;12504;52.870;8.798;2023-07-13T13:54:18;6.72;;;4.75;;
24383;SDS011;12504;52.870;8.798;2023-07-13T13:56:45;8.73;;;4.13;;
24383;SDS011;12504;52.870;8.798;2023-07-13T13:59:16;8.90;;;4.20;;
24383;SDS011;12504;52.870;8.798;2023-07-13T14:01:43;7.30;;;4.22;;
24383;SDS011;12504;52.870;8.798;2023-07-13T14:04:15;7.53;;;4.07;;
24383;SDS011;12504;52.870;8.798;2023-07-13T14:06:43;7.53;;;3.67;;
24383;SDS011;12504;52.870;8.798;2023-07-13T14:09:14;5.05;;;3.80;;
24383;SDS011;12504;52.870;8.798;2023-07-13T14:11:43;4.80;;;3.85;;
24383;SDS011;12504;52.870;8.798;2023-07-13T14:14:12;6.00;;;3.80;;
24383;SDS011;12504;52.870;8.798;2023-07-13T14:16:45;7.25;;;3.70;;
24383;SDS011;12504;52.870;8.798;2023-07-13T14:19:21;5.32;;;3.80;;
24383;SDS011;12504;52.870;8.798;2023-07-13T14:21:53;4.50;;;3.30;;
24383;SDS011;12504;52.870;8.798;2023-07-13T14:24:22;5.53;;;3.83;;
24383;SDS011;12504;52.870;8.798;2023-07-13T14:26:59;6.93;;;3.70;;
24383;SDS011;12504;52.870;8.798;2023-07-13T14:29:26;5.43;;;3.33;;
24383;SDS011;12504;52.870;8.798;2023-07-13T14:31:53;3.80;;;2.83;;
24383;SDS011;12504;52.870;8.798;2023-07-13T14:34:19;3.63;;;2.88;;
24383;SDS011;12504;52.870;8.798;2023-07-13T14:37:05;5.00;;;2.88;;
24383;SDS011;12504;52.870;8.798;2023-07-13T14:39:38;6.95;;;3.13;;
24383;SDS011;12504;52.870;8.798;2023-07-13T14:42:30;5.75;;;3.55;;
24383;SDS011;12504;52.870;8.798;2023-07-13T14:47:51;8.80;;;3.85;;
24383;SDS011;12504;52.870;8.798;2023-07-13T14:50:20;10.45;;;4.35;;
24383;SDS011;12504;52.870;8.798;2023-07-13T14:52:55;6.32;;;3.38;;
24383;SDS011;12504;52.870;8.798;2023-07-13T14:55:20;7.07;;;3.93;;
24383;SDS011;12504;52.870;8.798;2023-07-13T14:57:46;4.10;;;3.35;;
24383;SDS011;12504;52.870;8.798;2023-07-13T15:02:50;6.85;;;4.00;;
24383;SDS011;12504;52.870;8.798;2023-07-13T15:05:26;4.75;;;2.95;;
24383;SDS011;12504;52.870;8.798;2023-07-13T15:07:55;5.40;;;3.80;;
24383;SDS011;12504;52.870;8.798;2023-07-13T15:10:27;4.45;;;3.00;;
24383;SDS011;12504;52.870;8.798;2023-07-13T15:12:58;3.47;;;2.88;;
24383;SDS011;12504;52.870;8.798;2023-07-13T15:15:29;6.22;;;3.30;;
24383;SDS011;12504;52.870;8.798;2023-07-13T15:17:58;6.82;;;3.67;;
24383;SDS011;12504;52.870;8.798;2023-07-13T15:20:29;7.53;;;4.05;;
24383;SDS011;12504;52.870;8.798;2023-07-13T15:23:00;10.63;;;3.72;;
24383;SDS011;12504;52.870;8.798;2023-07-13T15:25:27;5.05;;;4.10;;
24383;SDS011;12504;52.870;8.798;2023-07-13T15:27:55;5.03;;;3.65;;
24383;SDS011;12504;52.870;8.798;2023-07-13T15:30:22;9.07;;;3.78;;
24383;SDS011;12504;52.870;8.798;2023-07-13T15:33:01;7.63;;;3.88;;
24383;SDS011;12504;52.870;8.798;2023-07-13T15:35:58;5.80;;;3.80;;